Terminal Aerodrome Forecast
Issued by NWS Wakefield, VA

Home | Current Version | Previous Version | Text Only | Print | Product List | Glossary On
Versions: 1 2 3 4 5 6 7 8 9 10 11 12 13 14 15 16 17 18 19 20 21 22 23 24 25 26 27 28
364
FTUS41 KAKQ 301326 AAA
TAFECG
TAF AMD
KECG 301326Z 3013/0112 04009KT P6SM OVC010
      TEMPO 3013/3016 BKN008
     FM301800 06009KT P6SM OVC015
     FM302100 06009KT P6SM OVC035
     FM010300 09006KT P6SM OVC020=

USA.gov is the U.S. government's official web portal to all federal, state and local government web resources and services.